createdAt,value
2023-05-24T00:00:13.819Z,6.63
2023-05-24T00:02:42.177Z,7.05
2023-05-24T00:05:11.792Z,9.53
2023-05-24T00:07:38.394Z,9.15
2023-05-24T00:10:05.707Z,6.57
2023-05-24T00:12:32.807Z,7.25
2023-05-24T00:14:59.696Z,9.10
2023-05-24T00:17:26.266Z,8.68
2023-05-24T00:19:52.971Z,10.02
2023-05-24T00:22:21.120Z,7.22
2023-05-24T00:24:48.319Z,7.82
2023-05-24T00:27:15.508Z,8.35
2023-05-24T00:29:42.184Z,12.25
2023-05-24T00:32:08.935Z,10.82
2023-05-24T00:34:35.760Z,11.55
2023-05-24T00:37:02.297Z,10.52
2023-05-24T00:39:28.839Z,12.95
2023-05-24T00:41:55.337Z,10.90
2023-05-24T00:44:22.025Z,11.43
2023-05-24T00:46:48.614Z,12.00
2023-05-24T00:49:19.475Z,10.07
2023-05-24T00:51:46.247Z,9.85
2023-05-24T00:54:14.023Z,11.45
2023-05-24T00:56:41.219Z,12.32
2023-05-24T00:59:07.797Z,10.23
2023-05-24T01:01:34.409Z,10.57
2023-05-24T01:04:01.352Z,10.27
2023-05-24T01:06:28.620Z,10.57
2023-05-24T01:09:01.320Z,14.70
2023-05-24T01:11:27.857Z,11.73
2023-05-24T01:14:21.232Z,13.10
2023-05-24T01:16:56.551Z,10.68
2023-05-24T01:19:24.216Z,10.80
2023-05-24T01:22:00.091Z,10.68
2023-05-24T01:24:42.431Z,11.82
2023-05-24T01:27:11.971Z,11.93
2023-05-24T01:29:39.110Z,13.15
2023-05-24T01:32:05.839Z,11.13
2023-05-24T01:34:32.387Z,13.80
2023-05-24T01:36:58.884Z,12.32
2023-05-24T01:39:26.771Z,13.63
2023-05-24T01:42:09.244Z,13.10
2023-05-24T01:44:54.361Z,14.25
2023-05-24T01:47:36.317Z,14.55
2023-05-24T01:50:07.697Z,17.27
2023-05-24T01:52:35.894Z,14.38
2023-05-24T01:55:03.337Z,13.35
2023-05-24T01:57:30.968Z,13.93
2023-05-24T01:59:57.948Z,14.15
2023-05-24T02:02:24.926Z,13.57
2023-05-24T02:04:51.526Z,13.70
2023-05-24T02:07:19.338Z,16.10
2023-05-24T02:09:45.942Z,14.18
2023-05-24T02:12:12.480Z,15.05
2023-05-24T02:14:39.183Z,16.88
2023-05-24T02:17:06.270Z,17.20
2023-05-24T02:19:34.654Z,15.50
2023-05-24T02:22:01.344Z,14.80
2023-05-24T02:24:27.834Z,14.15
2023-05-24T02:26:55.982Z,18.15
2023-05-24T02:29:23.122Z,15.93
2023-05-24T02:31:55.009Z,16.60
2023-05-24T02:34:23.247Z,14.23
2023-05-24T02:36:50.332Z,15.50
2023-05-24T02:39:16.980Z,14.52
2023-05-24T02:41:43.610Z,14.18
2023-05-24T02:44:10.484Z,15.70
2023-05-24T02:46:37.105Z,15.48
2023-05-24T02:49:03.604Z,17.42
2023-05-24T02:51:30.224Z,14.90
2023-05-24T02:53:56.790Z,14.98
2023-05-24T02:56:23.299Z,13.88
2023-05-24T02:58:49.918Z,13.55
2023-05-24T03:01:16.452Z,13.13
2023-05-24T03:03:43.086Z,12.90
2023-05-24T03:06:09.673Z,12.35
2023-05-24T03:08:37.529Z,12.95
2023-05-24T03:11:04.112Z,10.48
2023-05-24T03:13:30.564Z,10.95
2023-05-24T03:15:57.103Z,10.90
2023-05-24T03:18:23.716Z,8.38
2023-05-24T03:20:50.402Z,8.75
2023-05-24T03:23:16.906Z,9.27
2023-05-24T03:25:44.021Z,13.27
2023-05-24T03:28:10.535Z,10.40
2023-05-24T03:30:37.026Z,9.00
2023-05-24T03:33:03.596Z,7.75
2023-05-24T03:35:30.088Z,7.25
2023-05-24T03:37:56.647Z,7.45
2023-05-24T03:40:23.156Z,7.30
2023-05-24T03:42:49.633Z,6.80
2023-05-24T03:45:30.705Z,7.82
2023-05-24T03:48:03.434Z,7.10
2023-05-24T03:50:30.047Z,5.55
2023-05-24T03:52:56.530Z,7.10
2023-05-24T03:55:23.002Z,7.07
2023-05-24T03:57:49.490Z,7.60
2023-05-24T04:00:16.081Z,6.03
2023-05-24T04:02:42.838Z,7.75
2023-05-24T04:05:10.476Z,6.55
2023-05-24T04:07:37.486Z,7.45
2023-05-24T04:10:07.285Z,5.30
2023-05-24T04:12:34.136Z,6.82
2023-05-24T04:15:00.865Z,5.88
2023-05-24T04:17:29.574Z,7.30
2023-05-24T04:19:56.582Z,5.20
2023-05-24T04:22:24.975Z,6.13
2023-05-24T04:24:52.431Z,6.57
2023-05-24T04:27:19.070Z,6.28
2023-05-24T04:29:49.921Z,5.97
2023-05-24T04:32:17.958Z,7.25
2023-05-24T04:34:46.049Z,6.45
2023-05-24T04:37:13.921Z,6.28
2023-05-24T04:39:41.010Z,5.90
2023-05-24T04:42:07.955Z,7.32
2023-05-24T04:44:34.745Z,7.07
2023-05-24T04:47:03.657Z,5.72
2023-05-24T04:49:30.406Z,6.10
2023-05-24T04:51:57.425Z,6.60
2023-05-24T04:54:24.376Z,6.60
2023-05-24T04:56:51.908Z,6.32
2023-05-24T04:59:18.416Z,6.05
2023-05-24T05:01:44.923Z,6.00
2023-05-24T05:04:11.953Z,7.20
2023-05-24T05:06:40.561Z,6.80
2023-05-24T05:09:10.697Z,6.07
2023-05-24T05:11:37.482Z,6.15
2023-05-24T05:14:03.968Z,5.85
2023-05-24T05:16:30.911Z,6.25
2023-05-24T05:18:57.957Z,6.57
2023-05-24T05:21:25.039Z,6.07
2023-05-24T05:23:51.541Z,6.32
2023-05-24T05:26:18.154Z,6.35
2023-05-24T05:28:44.902Z,8.38
2023-05-24T05:31:11.404Z,9.45
2023-05-24T05:33:37.981Z,6.88
2023-05-24T05:36:04.534Z,8.43
2023-05-24T05:38:31.001Z,7.70
2023-05-24T05:40:57.577Z,7.93
2023-05-24T05:43:25.261Z,8.23
2023-05-24T05:45:51.801Z,6.65
2023-05-24T05:48:18.350Z,6.72
2023-05-24T05:50:44.822Z,7.00
2023-05-24T05:53:11.616Z,8.07
2023-05-24T05:55:38.165Z,6.50
2023-05-24T05:58:04.644Z,6.63
2023-05-24T06:00:31.292Z,7.72
2023-05-24T06:02:58.649Z,7.35
2023-05-24T06:05:27.392Z,6.90
2023-05-24T06:07:53.896Z,7.18
2023-05-24T06:10:20.415Z,6.25
2023-05-24T06:12:46.903Z,6.18
2023-05-24T06:15:14.271Z,10.75
2023-05-24T06:17:42.432Z,6.32
2023-05-24T06:20:11.164Z,7.87
2023-05-24T06:22:38.760Z,8.20
2023-05-24T06:25:05.693Z,6.13
2023-05-24T06:27:32.313Z,6.43
2023-05-24T06:29:58.794Z,6.03
2023-05-24T06:32:25.458Z,8.40
2023-05-24T06:34:52.053Z,7.20
2023-05-24T06:37:18.593Z,6.53
2023-05-24T06:39:45.605Z,5.65
2023-05-24T06:42:12.173Z,6.10
2023-05-24T06:44:38.614Z,10.13
2023-05-24T06:47:06.165Z,5.55
2023-05-24T06:49:33.184Z,6.13
2023-05-24T06:51:59.713Z,6.30
2023-05-24T06:54:26.451Z,5.65
2023-05-24T06:56:52.922Z,5.60
2023-05-24T06:59:19.557Z,7.15
2023-05-24T07:01:46.127Z,5.30
2023-05-24T07:04:12.653Z,5.47
2023-05-24T07:06:39.601Z,5.53
2023-05-24T07:09:06.379Z,5.85
2023-05-24T07:11:33.000Z,5.82
2023-05-24T07:13:59.680Z,6.80
2023-05-24T07:16:26.218Z,5.40
2023-05-24T07:18:52.698Z,7.80
2023-05-24T07:21:19.372Z,5.40
2023-05-24T07:23:46.179Z,5.70
2023-05-24T07:26:12.986Z,5.45
2023-05-24T07:28:41.537Z,6.90
2023-05-24T07:31:09.963Z,5.50
2023-05-24T07:33:38.044Z,6.68
2023-05-24T07:36:08.846Z,5.57
2023-05-24T07:38:36.256Z,8.98
2023-05-24T07:41:03.761Z,5.80
2023-05-24T07:43:31.021Z,6.30
2023-05-24T07:45:57.663Z,7.30
2023-05-24T07:48:24.393Z,6.15
2023-05-24T07:50:52.100Z,6.20
2023-05-24T07:53:23.104Z,5.88
2023-05-24T07:55:50.964Z,6.35
2023-05-24T07:58:17.450Z,6.97
2023-05-24T08:00:44.024Z,6.47
2023-05-24T08:03:13.492Z,8.70
2023-05-24T08:05:40.470Z,9.57
2023-05-24T08:08:07.843Z,8.00
2023-05-24T08:10:34.351Z,8.00
2023-05-24T08:13:01.196Z,7.43
2023-05-24T08:15:27.861Z,9.80
2023-05-24T08:17:54.462Z,7.40
2023-05-24T08:20:21.232Z,7.28
2023-05-24T08:22:48.725Z,7.43
2023-05-24T08:25:15.452Z,7.30
2023-05-24T08:27:42.364Z,7.80
2023-05-24T08:30:09.179Z,9.45
2023-05-24T08:32:36.562Z,7.88
2023-05-24T08:35:14.787Z,7.38
2023-05-24T08:37:46.202Z,7.72
2023-05-24T08:40:13.009Z,7.38
2023-05-24T08:42:41.094Z,8.20
2023-05-24T08:45:14.687Z,7.30
2023-05-24T08:47:41.526Z,8.07
2023-05-24T08:50:08.771Z,8.77
2023-05-24T08:52:36.175Z,7.93
2023-05-24T08:55:05.172Z,7.68
2023-05-24T08:57:32.730Z,8.75
2023-05-24T08:59:59.394Z,8.57
2023-05-24T09:02:26.989Z,8.27
2023-05-24T09:04:54.514Z,7.78
2023-05-24T09:07:23.815Z,8.60
2023-05-24T09:09:53.556Z,7.78
2023-05-24T09:12:35.702Z,9.68
2023-05-24T09:15:05.297Z,8.80
2023-05-24T09:17:33.553Z,10.20
2023-05-24T09:20:00.542Z,8.80
2023-05-24T09:22:28.625Z,8.88
2023-05-24T09:25:00.683Z,11.40
2023-05-24T09:27:27.387Z,7.95
2023-05-24T09:29:55.259Z,8.40
2023-05-24T09:32:24.418Z,8.00
2023-05-24T09:34:54.550Z,8.07
2023-05-24T09:37:26.218Z,7.95
2023-05-24T09:40:07.262Z,7.45
2023-05-24T09:42:33.886Z,8.30
2023-05-24T09:45:09.562Z,8.05
2023-05-24T09:47:37.145Z,7.80
2023-05-24T09:50:04.462Z,7.57
2023-05-24T09:52:32.608Z,8.18
2023-05-24T09:55:00.389Z,7.80
2023-05-24T09:57:28.267Z,7.35
2023-05-24T09:59:54.842Z,6.32
2023-05-24T10:02:23.130Z,7.03
2023-05-24T10:04:57.688Z,10.57
2023-05-24T10:07:24.694Z,6.68
2023-05-24T10:09:51.779Z,6.63
2023-05-24T10:12:18.437Z,8.50
2023-05-24T10:14:45.254Z,7.70
2023-05-24T10:17:11.906Z,7.20
2023-05-24T10:19:38.540Z,8.00
2023-05-24T10:22:10.211Z,6.28
2023-05-24T10:24:40.043Z,6.55
2023-05-24T10:27:10.104Z,7.38
2023-05-24T10:29:45.982Z,6.97
2023-05-24T10:32:16.842Z,6.88
2023-05-24T10:34:43.646Z,7.40
2023-05-24T10:37:10.439Z,6.47
2023-05-24T10:39:37.510Z,7.53
2023-05-24T10:42:05.169Z,6.65
2023-05-24T10:44:33.576Z,6.75
2023-05-24T10:47:10.805Z,7.63
2023-05-24T10:49:38.905Z,6.88
2023-05-24T10:52:08.269Z,7.70
2023-05-24T10:54:36.366Z,7.75
2023-05-24T10:57:05.827Z,6.90
2023-05-24T10:59:39.558Z,7.03
2023-05-24T11:02:09.630Z,10.90
2023-05-24T11:04:41.170Z,8.65
2023-05-24T11:07:09.850Z,6.78
2023-05-24T11:09:37.051Z,6.70
2023-05-24T11:12:08.411Z,10.32
2023-05-24T11:14:37.240Z,6.45
2023-05-24T11:17:04.166Z,11.38
2023-05-24T11:19:33.506Z,6.43
2023-05-24T11:22:01.374Z,10.68
2023-05-24T11:24:29.122Z,6.63
2023-05-24T11:26:57.246Z,6.63
2023-05-24T11:29:24.370Z,7.32
2023-05-24T11:31:55.125Z,7.25
2023-05-24T11:34:21.981Z,7.20
2023-05-24T11:36:48.872Z,6.70
2023-05-24T11:39:16.620Z,6.68
2023-05-24T11:41:43.961Z,7.40
2023-05-24T11:44:11.395Z,5.82
2023-05-24T11:46:43.388Z,7.55
2023-05-24T11:49:13.016Z,7.00
2023-05-24T11:51:40.269Z,6.47
2023-05-24T11:54:07.040Z,7.78
2023-05-24T11:56:34.264Z,7.97
2023-05-24T11:59:17.657Z,6.93
2023-05-24T12:01:44.755Z,6.93
2023-05-24T12:04:11.947Z,7.00
2023-05-24T12:06:39.907Z,7.40
2023-05-24T12:09:18.167Z,6.38
2023-05-24T12:11:47.170Z,5.97
2023-05-24T12:14:14.575Z,6.90
2023-05-24T12:16:45.650Z,6.15
2023-05-24T12:19:31.567Z,6.53
2023-05-24T12:22:00.068Z,6.43
2023-05-24T12:24:27.730Z,6.50
2023-05-24T12:26:58.224Z,6.30
2023-05-24T12:29:24.826Z,6.50
2023-05-24T12:31:51.766Z,6.68
2023-05-24T12:34:19.517Z,6.65
2023-05-24T12:36:47.851Z,6.47
2023-05-24T12:39:22.453Z,6.93
2023-05-24T12:41:53.007Z,6.80
2023-05-24T12:44:27.107Z,5.90
2023-05-24T12:46:54.565Z,7.03
2023-05-24T12:49:21.476Z,6.00
2023-05-24T12:51:49.463Z,5.25
2023-05-24T12:54:18.298Z,7.18
2023-05-24T12:56:44.837Z,5.90
2023-05-24T12:59:12.185Z,5.85
2023-05-24T13:01:38.867Z,5.40
2023-05-24T13:04:05.580Z,5.93
2023-05-24T13:06:32.659Z,5.63
2023-05-24T13:08:59.292Z,5.22
2023-05-24T13:11:25.946Z,5.80
2023-05-24T13:13:52.629Z,5.30
2023-05-24T13:16:20.009Z,6.90
2023-05-24T13:21:13.558Z,5.05
2023-05-24T13:23:40.384Z,5.57
2023-05-24T13:26:07.056Z,5.17
2023-05-24T13:28:34.010Z,6.00
2023-05-24T13:31:00.753Z,5.85
2023-05-24T13:33:27.356Z,5.60
2023-05-24T13:35:54.576Z,6.18
2023-05-24T13:38:21.284Z,6.23
2023-05-24T13:40:48.426Z,5.50
2023-05-24T13:43:15.236Z,6.18
2023-05-24T13:45:42.178Z,5.40
2023-05-24T13:48:08.792Z,5.50
2023-05-24T13:50:35.782Z,5.93
2023-05-24T13:53:03.697Z,7.82
2023-05-24T13:57:57.385Z,5.30
2023-05-24T14:00:24.763Z,6.43
2023-05-24T14:02:51.912Z,5.28
2023-05-24T14:05:42.006Z,6.55
2023-05-24T14:08:06.930Z,7.70
2023-05-24T14:10:34.743Z,5.78
2023-05-24T14:13:16.229Z,6.05
2023-05-24T14:15:49.932Z,8.60
2023-05-24T14:18:16.864Z,6.00
2023-05-24T14:20:43.834Z,5.35
2023-05-24T14:23:10.538Z,5.27
2023-05-24T14:25:37.099Z,4.70
2023-05-24T14:28:03.932Z,4.78
2023-05-24T14:30:33.647Z,4.50
2023-05-24T14:33:01.300Z,5.50
2023-05-24T14:35:27.954Z,4.10
2023-05-24T14:37:54.550Z,4.40
2023-05-24T14:40:21.621Z,6.07
2023-05-24T14:42:48.175Z,8.07
2023-05-24T14:45:14.733Z,4.45
2023-05-24T14:47:41.324Z,5.93
2023-05-24T14:50:08.112Z,5.10
2023-05-24T14:52:34.691Z,6.47
2023-05-24T14:55:01.142Z,4.22
2023-05-24T14:57:27.614Z,4.07
2023-05-24T14:59:54.151Z,4.90
2023-05-24T15:02:20.724Z,4.07
2023-05-24T15:04:47.190Z,4.40
2023-05-24T15:07:13.827Z,4.45
2023-05-24T15:09:40.367Z,3.83
2023-05-24T15:12:07.752Z,4.35
2023-05-24T15:14:34.536Z,4.03
2023-05-24T15:17:01.135Z,4.88
2023-05-24T15:19:28.112Z,5.63
2023-05-24T15:21:54.789Z,5.13
2023-05-24T15:24:21.304Z,4.17
2023-05-24T15:26:48.485Z,4.35
2023-05-24T15:29:15.041Z,4.63
2023-05-24T15:31:41.711Z,4.20
2023-05-24T15:34:08.344Z,4.33
2023-05-24T15:36:34.839Z,3.95
2023-05-24T15:39:01.385Z,4.15
2023-05-24T15:41:28.355Z,5.10
2023-05-24T15:43:54.897Z,4.70
2023-05-24T15:46:21.851Z,4.05
2023-05-24T15:48:48.619Z,4.28
2023-05-24T15:53:44.644Z,4.97
2023-05-24T15:56:11.751Z,4.82
2023-05-24T15:58:38.355Z,4.22
2023-05-24T16:01:04.879Z,4.40
2023-05-24T16:03:31.602Z,6.07
2023-05-24T16:05:58.276Z,3.97
2023-05-24T16:08:27.958Z,3.97
2023-05-24T16:10:55.036Z,4.35
2023-05-24T16:13:21.768Z,4.32
2023-05-24T16:15:51.647Z,4.53
2023-05-24T16:18:22.815Z,4.20
2023-05-24T16:20:50.127Z,4.13
2023-05-24T16:23:17.070Z,4.88
2023-05-24T16:25:44.705Z,5.20
2023-05-24T16:28:11.212Z,5.40
2023-05-24T16:30:37.845Z,5.10
2023-05-24T16:33:04.766Z,4.55
2023-05-24T16:35:31.485Z,4.53
2023-05-24T16:37:58.199Z,6.00
2023-05-24T16:40:24.996Z,4.63
2023-05-24T16:42:53.669Z,4.43
2023-05-24T16:45:20.939Z,7.05
2023-05-24T16:47:48.032Z,5.45
2023-05-24T16:50:15.379Z,4.88
2023-05-24T16:52:42.512Z,6.07
2023-05-24T16:55:09.555Z,4.63
2023-05-24T16:57:36.668Z,5.03
2023-05-24T17:00:06.745Z,5.07
2023-05-24T17:02:34.037Z,5.40
2023-05-24T17:05:01.022Z,4.53
2023-05-24T17:07:27.983Z,5.13
2023-05-24T17:09:54.583Z,5.68
2023-05-24T17:12:24.076Z,5.03
2023-05-24T17:14:50.602Z,5.50
2023-05-24T17:17:17.183Z,6.65
2023-05-24T17:19:43.730Z,4.75
2023-05-24T17:22:11.189Z,4.95
2023-05-24T17:24:37.964Z,6.55
2023-05-24T17:27:05.151Z,5.53
2023-05-24T17:29:34.957Z,5.72
2023-05-24T17:32:01.544Z,5.30
2023-05-24T17:34:28.111Z,6.57
2023-05-24T17:36:54.618Z,6.13
2023-05-24T17:39:22.046Z,5.18
2023-05-24T17:41:48.572Z,4.47
2023-05-24T17:44:15.180Z,5.35
2023-05-24T17:46:41.950Z,4.55
2023-05-24T17:49:08.545Z,5.10
2023-05-24T17:51:35.142Z,4.80
2023-05-24T17:54:01.879Z,6.25
2023-05-24T17:56:30.486Z,5.43
2023-05-24T18:01:23.924Z,4.75
2023-05-24T18:03:50.826Z,5.35
2023-05-24T18:06:17.324Z,5.97
2023-05-24T18:08:44.360Z,5.05
2023-05-24T18:11:13.228Z,5.32
2023-05-24T18:16:06.985Z,4.50
2023-05-24T18:18:34.336Z,6.57
2023-05-24T18:21:01.044Z,5.68
2023-05-24T18:23:27.765Z,4.85
2023-05-24T18:26:01.167Z,5.78
2023-05-24T18:28:29.662Z,7.70
2023-05-24T18:30:56.453Z,5.28
2023-05-24T18:33:23.314Z,5.38
2023-05-24T18:35:50.027Z,4.20
2023-05-24T18:38:16.537Z,6.47
2023-05-24T18:40:43.043Z,6.45
2023-05-24T18:43:09.655Z,6.40
2023-05-24T18:45:37.200Z,4.38
2023-05-24T18:48:03.785Z,4.78
2023-05-24T18:50:30.475Z,4.38
2023-05-24T18:52:57.012Z,5.18
2023-05-24T18:55:23.494Z,4.75
2023-05-24T18:57:50.356Z,5.05
2023-05-24T19:00:19.439Z,4.32
2023-05-24T19:02:46.193Z,4.80
2023-05-24T19:05:12.992Z,5.60
2023-05-24T19:07:39.512Z,5.22
2023-05-24T19:10:06.523Z,5.80
2023-05-24T19:12:33.031Z,4.68
2023-05-24T19:14:59.679Z,4.82
2023-05-24T19:17:26.323Z,4.68
2023-05-24T19:19:52.930Z,6.65
2023-05-24T19:22:19.531Z,5.15
2023-05-24T19:24:46.090Z,5.80
2023-05-24T19:27:12.830Z,5.47
2023-05-24T19:29:40.119Z,5.80
2023-05-24T19:32:07.310Z,6.53
2023-05-24T19:34:35.500Z,5.50
2023-05-24T19:37:01.973Z,5.45
2023-05-24T19:39:28.753Z,7.65
2023-05-24T19:41:55.375Z,5.63
2023-05-24T19:44:22.084Z,7.93
2023-05-24T19:46:48.666Z,5.85
2023-05-24T19:49:15.317Z,6.80
2023-05-24T19:51:41.868Z,8.68
2023-05-24T19:54:09.352Z,5.88
2023-05-24T19:56:36.344Z,6.35
2023-05-24T19:59:02.921Z,6.50
2023-05-24T20:01:29.605Z,5.90
2023-05-24T20:03:56.292Z,8.05
2023-05-24T20:06:22.866Z,6.53
2023-05-24T20:08:49.535Z,6.53
2023-05-24T20:11:16.151Z,6.85
2023-05-24T20:13:42.703Z,8.98
2023-05-24T20:16:09.301Z,6.22
2023-05-24T20:18:36.024Z,6.18
2023-05-24T20:21:03.004Z,7.30
2023-05-24T20:23:30.709Z,6.38
2023-05-24T20:25:57.720Z,6.18
2023-05-24T20:28:30.555Z,6.35
2023-05-24T20:30:58.283Z,6.07
2023-05-24T20:33:24.780Z,6.57
2023-05-24T20:35:53.143Z,6.80
2023-05-24T20:38:19.938Z,7.07
2023-05-24T20:40:50.779Z,6.70
2023-05-24T20:43:17.341Z,7.22
2023-05-24T20:45:44.452Z,6.22
2023-05-24T20:48:11.442Z,7.50
2023-05-24T20:50:57.118Z,7.25
2023-05-24T20:53:23.634Z,5.22
2023-05-24T20:55:50.251Z,6.85
2023-05-24T20:58:17.304Z,6.30
2023-05-24T21:00:43.871Z,9.00
2023-05-24T21:03:10.642Z,6.40
2023-05-24T21:05:38.143Z,6.45
2023-05-24T21:08:04.724Z,7.90
2023-05-24T21:10:32.366Z,6.90
2023-05-24T21:12:59.017Z,6.13
2023-05-24T21:15:25.504Z,9.43
2023-05-24T21:17:51.986Z,8.10
2023-05-24T21:20:18.559Z,6.68
2023-05-24T21:22:46.196Z,7.05
2023-05-24T21:25:12.741Z,8.68
2023-05-24T21:27:39.262Z,7.88
2023-05-24T21:30:06.212Z,8.00
2023-05-24T21:32:32.742Z,6.65
2023-05-24T21:34:59.313Z,6.68
2023-05-24T21:37:25.894Z,6.32
2023-05-24T21:39:52.402Z,5.93
2023-05-24T21:42:18.910Z,6.00
2023-05-24T21:44:45.554Z,7.63
2023-05-24T21:47:12.042Z,6.50
2023-05-24T21:49:38.611Z,6.28
2023-05-24T21:52:05.168Z,7.63
2023-05-24T21:54:31.730Z,7.22
2023-05-24T21:56:58.330Z,6.32
2023-05-24T21:59:24.853Z,5.85
2023-05-24T22:01:52.059Z,7.35
2023-05-24T22:04:18.654Z,7.25
2023-05-24T22:06:46.150Z,6.50
2023-05-24T22:09:13.676Z,7.63
2023-05-24T22:11:42.906Z,8.25
2023-05-24T22:14:10.515Z,6.97
2023-05-24T22:16:37.063Z,8.65
2023-05-24T22:19:03.801Z,8.48
2023-05-24T22:21:33.541Z,6.70
2023-05-24T22:24:00.661Z,8.00
2023-05-24T22:26:28.026Z,7.32
2023-05-24T22:29:00.951Z,7.65
2023-05-24T22:31:33.340Z,8.45
2023-05-24T22:34:02.399Z,8.13
2023-05-24T22:36:33.284Z,7.65
2023-05-24T22:39:00.614Z,10.25
2023-05-24T22:41:27.390Z,8.65
2023-05-24T22:43:54.369Z,8.40
2023-05-24T22:46:22.375Z,8.93
2023-05-24T22:48:50.070Z,8.52
2023-05-24T22:51:16.983Z,8.52
2023-05-24T22:53:43.450Z,8.90
2023-05-24T22:56:10.532Z,7.85
2023-05-24T22:58:37.284Z,8.75
2023-05-24T23:01:06.827Z,9.40
2023-05-24T23:03:33.422Z,9.52
2023-05-24T23:06:04.289Z,9.10
2023-05-24T23:08:34.681Z,10.73
2023-05-24T23:11:01.616Z,8.18
2023-05-24T23:13:33.183Z,9.15
2023-05-24T23:16:00.086Z,11.07
2023-05-24T23:18:27.859Z,9.32
2023-05-24T23:20:54.486Z,11.25
2023-05-24T23:23:21.671Z,12.55
2023-05-24T23:25:50.769Z,14.00
2023-05-24T23:28:17.300Z,12.38
2023-05-24T23:30:43.795Z,13.73
2023-05-24T23:33:10.733Z,12.23
2023-05-24T23:35:39.993Z,13.13
2023-05-24T23:38:06.570Z,16.30
2023-05-24T23:40:33.425Z,12.15
2023-05-24T23:43:03.192Z,11.85
2023-05-24T23:45:29.757Z,10.75
2023-05-24T23:47:56.276Z,10.73
2023-05-24T23:50:22.916Z,11.27
2023-05-24T23:52:49.786Z,9.35
2023-05-24T23:55:16.430Z,9.75
2023-05-24T23:57:42.978Z,9.35
